sensor_id;sensor_type;location;lat;lon;timestamp;P1;durP1;ratioP1;P2;durP2;ratioP2
27796;SDS011;15177;50.844;4.412;2023-04-03T00:01:14;13.67;;;8.33;;
27796;SDS011;15177;50.844;4.412;2023-04-03T00:03:40;10.10;;;7.03;;
27796;SDS011;15177;50.844;4.412;2023-04-03T00:06:06;9.83;;;7.17;;
27796;SDS011;15177;50.844;4.412;2023-04-03T00:08:33;14.07;;;7.30;;
27796;SDS011;15177;50.844;4.412;2023-04-03T00:11:01;9.93;;;7.03;;
27796;SDS011;15177;50.844;4.412;2023-04-03T00:13:27;10.80;;;6.63;;
27796;SDS011;15177;50.844;4.412;2023-04-03T00:15:53;11.73;;;6.73;;
27796;SDS011;15177;50.844;4.412;2023-04-03T00:18:19;16.53;;;6.67;;
27796;SDS011;15177;50.844;4.412;2023-04-03T00:20:45;10.80;;;6.97;;
27796;SDS011;15177;50.844;4.412;2023-04-03T00:23:11;11.90;;;6.37;;
27796;SDS011;15177;50.844;4.412;2023-04-03T00:25:37;12.30;;;7.07;;
27796;SDS011;15177;50.844;4.412;2023-04-03T00:28:03;14.13;;;6.33;;
27796;SDS011;15177;50.844;4.412;2023-04-03T00:30:29;11.73;;;7.07;;
27796;SDS011;15177;50.844;4.412;2023-04-03T00:32:55;14.73;;;7.27;;
27796;SDS011;15177;50.844;4.412;2023-04-03T00:35:22;20.20;;;8.07;;
27796;SDS011;15177;50.844;4.412;2023-04-03T00:37:52;11.93;;;7.17;;
27796;SDS011;15177;50.844;4.412;2023-04-03T00:40:20;18.13;;;6.73;;
27796;SDS011;15177;50.844;4.412;2023-04-03T00:42:47;11.80;;;7.20;;
27796;SDS011;15177;50.844;4.412;2023-04-03T00:45:22;11.20;;;6.53;;
27796;SDS011;15177;50.844;4.412;2023-04-03T00:47:53;14.67;;;7.13;;
27796;SDS011;15177;50.844;4.412;2023-04-03T00:50:20;16.93;;;7.17;;
27796;SDS011;15177;50.844;4.412;2023-04-03T00:52:47;11.13;;;6.63;;
27796;SDS011;15177;50.844;4.412;2023-04-03T00:55:14;14.37;;;6.77;;
27796;SDS011;15177;50.844;4.412;2023-04-03T00:57:41;8.50;;;6.87;;
27796;SDS011;15177;50.844;4.412;2023-04-03T01:00:09;14.73;;;7.00;;
27796;SDS011;15177;50.844;4.412;2023-04-03T01:02:37;11.53;;;6.60;;
27796;SDS011;15177;50.844;4.412;2023-04-03T01:05:05;11.30;;;7.00;;
27796;SDS011;15177;50.844;4.412;2023-04-03T01:07:31;12.47;;;7.33;;
27796;SDS011;15177;50.844;4.412;2023-04-03T01:10:00;10.73;;;7.33;;
27796;SDS011;15177;50.844;4.412;2023-04-03T01:12:29;17.53;;;7.67;;
27796;SDS011;15177;50.844;4.412;2023-04-03T01:15:07;13.93;;;7.23;;
27796;SDS011;15177;50.844;4.412;2023-04-03T01:17:39;13.33;;;7.57;;
27796;SDS011;15177;50.844;4.412;2023-04-03T01:22:55;13.70;;;7.13;;
27796;SDS011;15177;50.844;4.412;2023-04-03T01:25:32;15.47;;;7.80;;
27796;SDS011;15177;50.844;4.412;2023-04-03T01:27:59;13.10;;;7.07;;
27796;SDS011;15177;50.844;4.412;2023-04-03T01:30:28;10.93;;;7.10;;
27796;SDS011;15177;50.844;4.412;2023-04-03T01:32:56;11.40;;;6.83;;
27796;SDS011;15177;50.844;4.412;2023-04-03T01:35:22;9.80;;;6.10;;
27796;SDS011;15177;50.844;4.412;2023-04-03T01:37:48;10.70;;;7.10;;
27796;SDS011;15177;50.844;4.412;2023-04-03T01:40:13;10.83;;;6.93;;
27796;SDS011;15177;50.844;4.412;2023-04-03T01:42:39;13.27;;;7.13;;
27796;SDS011;15177;50.844;4.412;2023-04-03T01:45:04;19.20;;;7.67;;
27796;SDS011;15177;50.844;4.412;2023-04-03T01:47:30;17.10;;;7.67;;
27796;SDS011;15177;50.844;4.412;2023-04-03T01:49:56;10.57;;;7.00;;
27796;SDS011;15177;50.844;4.412;2023-04-03T01:52:21;15.03;;;7.40;;
27796;SDS011;15177;50.844;4.412;2023-04-03T01:54:47;12.27;;;7.17;;
27796;SDS011;15177;50.844;4.412;2023-04-03T01:57:12;13.87;;;6.83;;
27796;SDS011;15177;50.844;4.412;2023-04-03T01:59:40;17.37;;;7.53;;
27796;SDS011;15177;50.844;4.412;2023-04-03T02:02:05;12.40;;;6.90;;
27796;SDS011;15177;50.844;4.412;2023-04-03T02:04:31;10.27;;;6.53;;
27796;SDS011;15177;50.844;4.412;2023-04-03T02:06:57;13.50;;;7.00;;
27796;SDS011;15177;50.844;4.412;2023-04-03T02:09:23;11.97;;;7.03;;
27796;SDS011;15177;50.844;4.412;2023-04-03T02:11:51;10.70;;;6.90;;
27796;SDS011;15177;50.844;4.412;2023-04-03T02:14:17;11.87;;;7.57;;
27796;SDS011;15177;50.844;4.412;2023-04-03T02:16:42;11.23;;;7.23;;
27796;SDS011;15177;50.844;4.412;2023-04-03T02:19:08;13.83;;;8.00;;
27796;SDS011;15177;50.844;4.412;2023-04-03T02:21:34;15.97;;;7.67;;
27796;SDS011;15177;50.844;4.412;2023-04-03T02:23:59;12.13;;;7.13;;
27796;SDS011;15177;50.844;4.412;2023-04-03T02:26:25;9.87;;;7.40;;
27796;SDS011;15177;50.844;4.412;2023-04-03T02:28:52;12.37;;;7.33;;
27796;SDS011;15177;50.844;4.412;2023-04-03T02:31:19;15.97;;;7.03;;
27796;SDS011;15177;50.844;4.412;2023-04-03T02:33:45;13.67;;;7.10;;
27796;SDS011;15177;50.844;4.412;2023-04-03T02:36:13;17.00;;;7.57;;
27796;SDS011;15177;50.844;4.412;2023-04-03T02:38:39;13.37;;;7.37;;
27796;SDS011;15177;50.844;4.412;2023-04-03T02:41:06;12.73;;;7.47;;
27796;SDS011;15177;50.844;4.412;2023-04-03T02:43:34;11.23;;;7.07;;
27796;SDS011;15177;50.844;4.412;2023-04-03T02:45:59;12.47;;;8.10;;
27796;SDS011;15177;50.844;4.412;2023-04-03T02:48:25;12.93;;;7.10;;
27796;SDS011;15177;50.844;4.412;2023-04-03T02:50:51;12.60;;;8.07;;
27796;SDS011;15177;50.844;4.412;2023-04-03T02:53:17;20.73;;;7.53;;
27796;SDS011;15177;50.844;4.412;2023-04-03T02:55:42;11.23;;;7.60;;
27796;SDS011;15177;50.844;4.412;2023-04-03T02:58:08;10.43;;;7.07;;
27796;SDS011;15177;50.844;4.412;2023-04-03T03:00:34;14.90;;;7.80;;
27796;SDS011;15177;50.844;4.412;2023-04-03T03:03:00;15.27;;;8.17;;
27796;SDS011;15177;50.844;4.412;2023-04-03T03:05:26;12.40;;;8.07;;
27796;SDS011;15177;50.844;4.412;2023-04-03T03:07:52;10.23;;;7.13;;
27796;SDS011;15177;50.844;4.412;2023-04-03T03:10:18;13.30;;;7.37;;
27796;SDS011;15177;50.844;4.412;2023-04-03T03:12:43;9.97;;;6.80;;
27796;SDS011;15177;50.844;4.412;2023-04-03T03:15:09;16.27;;;7.97;;
27796;SDS011;15177;50.844;4.412;2023-04-03T03:17:35;11.60;;;7.47;;
27796;SDS011;15177;50.844;4.412;2023-04-03T03:20:01;11.77;;;7.57;;
27796;SDS011;15177;50.844;4.412;2023-04-03T03:22:28;10.07;;;7.37;;
27796;SDS011;15177;50.844;4.412;2023-04-03T03:24:53;15.37;;;8.50;;
27796;SDS011;15177;50.844;4.412;2023-04-03T03:27:19;12.77;;;8.73;;
27796;SDS011;15177;50.844;4.412;2023-04-03T03:29:45;10.90;;;7.80;;
27796;SDS011;15177;50.844;4.412;2023-04-03T03:32:11;14.13;;;8.43;;
27796;SDS011;15177;50.844;4.412;2023-04-03T03:34:37;15.30;;;8.90;;
27796;SDS011;15177;50.844;4.412;2023-04-03T03:37:02;18.80;;;8.27;;
27796;SDS011;15177;50.844;4.412;2023-04-03T03:39:28;13.80;;;8.77;;
27796;SDS011;15177;50.844;4.412;2023-04-03T03:41:53;10.50;;;7.93;;
27796;SDS011;15177;50.844;4.412;2023-04-03T03:44:19;11.60;;;7.77;;
27796;SDS011;15177;50.844;4.412;2023-04-03T03:46:45;11.13;;;7.83;;
27796;SDS011;15177;50.844;4.412;2023-04-03T03:49:11;16.00;;;8.10;;
27796;SDS011;15177;50.844;4.412;2023-04-03T03:51:37;19.97;;;8.00;;
27796;SDS011;15177;50.844;4.412;2023-04-03T03:54:03;16.57;;;9.00;;
27796;SDS011;15177;50.844;4.412;2023-04-03T03:56:30;11.70;;;8.27;;
27796;SDS011;15177;50.844;4.412;2023-04-03T03:58:56;11.67;;;8.00;;
27796;SDS011;15177;50.844;4.412;2023-04-03T04:01:22;12.40;;;8.43;;
27796;SDS011;15177;50.844;4.412;2023-04-03T04:03:48;14.10;;;8.90;;
27796;SDS011;15177;50.844;4.412;2023-04-03T04:06:14;16.43;;;8.37;;
27796;SDS011;15177;50.844;4.412;2023-04-03T04:08:40;16.77;;;8.77;;
27796;SDS011;15177;50.844;4.412;2023-04-03T04:11:06;14.30;;;8.37;;
27796;SDS011;15177;50.844;4.412;2023-04-03T04:13:31;17.83;;;8.17;;
27796;SDS011;15177;50.844;4.412;2023-04-03T04:15:57;14.03;;;8.70;;
27796;SDS011;15177;50.844;4.412;2023-04-03T04:18:22;12.03;;;8.00;;
27796;SDS011;15177;50.844;4.412;2023-04-03T04:20:48;14.57;;;8.37;;
27796;SDS011;15177;50.844;4.412;2023-04-03T04:23:15;15.73;;;8.93;;
27796;SDS011;15177;50.844;4.412;2023-04-03T04:25:43;15.40;;;8.70;;
27796;SDS011;15177;50.844;4.412;2023-04-03T04:28:10;15.47;;;8.70;;
27796;SDS011;15177;50.844;4.412;2023-04-03T04:30:36;16.87;;;9.47;;
27796;SDS011;15177;50.844;4.412;2023-04-03T04:33:01;16.23;;;8.97;;
27796;SDS011;15177;50.844;4.412;2023-04-03T04:35:27;18.47;;;9.40;;
27796;SDS011;15177;50.844;4.412;2023-04-03T04:37:53;12.50;;;9.00;;
27796;SDS011;15177;50.844;4.412;2023-04-03T04:40:18;13.90;;;9.40;;
27796;SDS011;15177;50.844;4.412;2023-04-03T04:42:44;17.97;;;9.73;;
27796;SDS011;15177;50.844;4.412;2023-04-03T04:45:10;14.00;;;9.43;;
27796;SDS011;15177;50.844;4.412;2023-04-03T04:47:35;15.00;;;9.03;;
27796;SDS011;15177;50.844;4.412;2023-04-03T04:50:01;16.03;;;10.93;;
27796;SDS011;15177;50.844;4.412;2023-04-03T04:52:28;15.00;;;9.17;;
27796;SDS011;15177;50.844;4.412;2023-04-03T04:54:53;20.00;;;9.17;;
27796;SDS011;15177;50.844;4.412;2023-04-03T04:57:19;16.67;;;10.93;;
27796;SDS011;15177;50.844;4.412;2023-04-03T04:59:45;15.23;;;9.97;;
27796;SDS011;15177;50.844;4.412;2023-04-03T05:02:10;14.77;;;10.27;;
27796;SDS011;15177;50.844;4.412;2023-04-03T05:04:36;18.17;;;9.43;;
27796;SDS011;15177;50.844;4.412;2023-04-03T05:07:02;13.37;;;9.80;;
27796;SDS011;15177;50.844;4.412;2023-04-03T05:09:27;16.80;;;10.47;;
27796;SDS011;15177;50.844;4.412;2023-04-03T05:11:53;16.03;;;9.63;;
27796;SDS011;15177;50.844;4.412;2023-04-03T05:14:19;15.60;;;10.20;;
27796;SDS011;15177;50.844;4.412;2023-04-03T05:16:45;15.00;;;11.20;;
27796;SDS011;15177;50.844;4.412;2023-04-03T05:19:10;15.67;;;9.97;;
27796;SDS011;15177;50.844;4.412;2023-04-03T05:21:36;16.40;;;9.67;;
27796;SDS011;15177;50.844;4.412;2023-04-03T05:24:02;20.83;;;10.70;;
27796;SDS011;15177;50.844;4.412;2023-04-03T05:26:28;20.50;;;11.53;;
27796;SDS011;15177;50.844;4.412;2023-04-03T05:28:55;20.87;;;11.53;;
27796;SDS011;15177;50.844;4.412;2023-04-03T05:31:21;16.67;;;11.10;;
27796;SDS011;15177;50.844;4.412;2023-04-03T05:33:48;15.80;;;11.73;;
27796;SDS011;15177;50.844;4.412;2023-04-03T05:36:14;14.97;;;10.83;;
27796;SDS011;15177;50.844;4.412;2023-04-03T05:38:40;21.80;;;11.93;;
27796;SDS011;15177;50.844;4.412;2023-04-03T05:41:06;15.47;;;10.43;;
27796;SDS011;15177;50.844;4.412;2023-04-03T05:43:31;22.80;;;11.60;;
27796;SDS011;15177;50.844;4.412;2023-04-03T05:45:58;17.70;;;10.73;;
27796;SDS011;15177;50.844;4.412;2023-04-03T05:48:24;25.47;;;11.60;;
27796;SDS011;15177;50.844;4.412;2023-04-03T05:50:50;19.97;;;11.53;;
27796;SDS011;15177;50.844;4.412;2023-04-03T05:53:18;22.30;;;11.57;;
27796;SDS011;15177;50.844;4.412;2023-04-03T05:55:46;24.27;;;11.93;;
27796;SDS011;15177;50.844;4.412;2023-04-03T05:58:12;19.03;;;11.30;;
27796;SDS011;15177;50.844;4.412;2023-04-03T06:00:38;22.63;;;11.57;;
27796;SDS011;15177;50.844;4.412;2023-04-03T06:03:03;18.87;;;11.20;;
27796;SDS011;15177;50.844;4.412;2023-04-03T06:05:30;17.57;;;11.77;;
27796;SDS011;15177;50.844;4.412;2023-04-03T06:07:55;19.70;;;11.50;;
27796;SDS011;15177;50.844;4.412;2023-04-03T06:10:22;17.30;;;10.93;;
27796;SDS011;15177;50.844;4.412;2023-04-03T06:12:47;17.73;;;10.77;;
27796;SDS011;15177;50.844;4.412;2023-04-03T06:15:13;19.80;;;11.10;;
27796;SDS011;15177;50.844;4.412;2023-04-03T06:17:39;21.00;;;10.60;;
27796;SDS011;15177;50.844;4.412;2023-04-03T06:20:05;19.93;;;11.03;;
27796;SDS011;15177;50.844;4.412;2023-04-03T06:22:32;14.43;;;9.97;;
27796;SDS011;15177;50.844;4.412;2023-04-03T06:24:58;14.83;;;10.13;;
27796;SDS011;15177;50.844;4.412;2023-04-03T06:27:23;13.83;;;9.27;;
27796;SDS011;15177;50.844;4.412;2023-04-03T06:29:49;13.10;;;8.50;;
27796;SDS011;15177;50.844;4.412;2023-04-03T06:32:15;10.90;;;7.87;;
27796;SDS011;15177;50.844;4.412;2023-04-03T06:34:41;9.87;;;6.93;;
27796;SDS011;15177;50.844;4.412;2023-04-03T06:37:25;11.40;;;6.77;;
27796;SDS011;15177;50.844;4.412;2023-04-03T06:39:51;12.17;;;6.47;;
27796;SDS011;15177;50.844;4.412;2023-04-03T06:42:17;12.37;;;6.57;;
27796;SDS011;15177;50.844;4.412;2023-04-03T06:44:43;11.00;;;6.53;;
27796;SDS011;15177;50.844;4.412;2023-04-03T06:47:12;12.57;;;6.50;;
27796;SDS011;15177;50.844;4.412;2023-04-03T06:49:39;10.70;;;5.70;;
27796;SDS011;15177;50.844;4.412;2023-04-03T06:52:06;11.18;;;6.25;;
27796;SDS011;15177;50.844;4.412;2023-04-03T06:54:32;11.10;;;6.10;;
27796;SDS011;15177;50.844;4.412;2023-04-03T06:56:58;11.43;;;6.78;;
27796;SDS011;15177;50.844;4.412;2023-04-03T06:59:23;10.40;;;5.97;;
27796;SDS011;15177;50.844;4.412;2023-04-03T07:01:49;10.13;;;6.05;;
27796;SDS011;15177;50.844;4.412;2023-04-03T07:04:16;12.18;;;5.90;;
27796;SDS011;15177;50.844;4.412;2023-04-03T07:06:41;9.60;;;5.68;;
27796;SDS011;15177;50.844;4.412;2023-04-03T07:09:07;10.55;;;6.32;;
27796;SDS011;15177;50.844;4.412;2023-04-03T07:11:34;10.65;;;6.40;;
27796;SDS011;15177;50.844;4.412;2023-04-03T07:14:01;13.35;;;7.22;;
27796;SDS011;15177;50.844;4.412;2023-04-03T07:16:27;12.32;;;6.57;;
27796;SDS011;15177;50.844;4.412;2023-04-03T07:18:52;8.10;;;5.78;;
27796;SDS011;15177;50.844;4.412;2023-04-03T07:21:18;9.32;;;5.70;;
27796;SDS011;15177;50.844;4.412;2023-04-03T07:23:44;10.90;;;6.30;;
27796;SDS011;15177;50.844;4.412;2023-04-03T07:26:09;9.55;;;5.47;;
27796;SDS011;15177;50.844;4.412;2023-04-03T07:28:35;11.32;;;6.45;;
27796;SDS011;15177;50.844;4.412;2023-04-03T07:31:04;9.52;;;5.63;;
27796;SDS011;15177;50.844;4.412;2023-04-03T07:33:35;10.80;;;5.95;;
27796;SDS011;15177;50.844;4.412;2023-04-03T07:36:02;10.13;;;5.82;;
27796;SDS011;15177;50.844;4.412;2023-04-03T07:38:28;7.72;;;5.10;;
27796;SDS011;15177;50.844;4.412;2023-04-03T07:40:54;8.25;;;5.53;;
27796;SDS011;15177;50.844;4.412;2023-04-03T07:43:20;9.93;;;5.35;;
27796;SDS011;15177;50.844;4.412;2023-04-03T07:45:47;10.70;;;5.30;;
27796;SDS011;15177;50.844;4.412;2023-04-03T07:48:18;12.60;;;6.68;;
27796;SDS011;15177;50.844;4.412;2023-04-03T07:50:45;9.95;;;6.07;;
27796;SDS011;15177;50.844;4.412;2023-04-03T07:53:11;6.07;;;4.78;;
27796;SDS011;15177;50.844;4.412;2023-04-03T07:55:37;7.40;;;5.03;;
27796;SDS011;15177;50.844;4.412;2023-04-03T07:58:11;8.20;;;5.03;;
27796;SDS011;15177;50.844;4.412;2023-04-03T08:00:39;10.82;;;5.03;;
27796;SDS011;15177;50.844;4.412;2023-04-03T08:03:06;10.82;;;5.25;;
27796;SDS011;15177;50.844;4.412;2023-04-03T08:05:35;8.85;;;5.15;;
27796;SDS011;15177;50.844;4.412;2023-04-03T08:08:02;8.60;;;4.88;;
27796;SDS011;15177;50.844;4.412;2023-04-03T08:10:29;10.07;;;4.47;;
27796;SDS011;15177;50.844;4.412;2023-04-03T08:12:56;9.20;;;4.80;;
27796;SDS011;15177;50.844;4.412;2023-04-03T08:15:21;10.13;;;5.05;;
27796;SDS011;15177;50.844;4.412;2023-04-03T08:17:47;9.95;;;5.03;;
27796;SDS011;15177;50.844;4.412;2023-04-03T08:20:13;9.02;;;5.00;;
27796;SDS011;15177;50.844;4.412;2023-04-03T08:22:39;13.32;;;4.90;;
27796;SDS011;15177;50.844;4.412;2023-04-03T08:25:05;14.13;;;5.93;;
27796;SDS011;15177;50.844;4.412;2023-04-03T08:27:31;10.20;;;4.88;;
27796;SDS011;15177;50.844;4.412;2023-04-03T08:29:57;6.53;;;4.70;;
27796;SDS011;15177;50.844;4.412;2023-04-03T08:32:23;6.95;;;4.70;;
27796;SDS011;15177;50.844;4.412;2023-04-03T08:34:49;7.50;;;4.78;;
27796;SDS011;15177;50.844;4.412;2023-04-03T08:37:15;8.13;;;4.80;;
27796;SDS011;15177;50.844;4.412;2023-04-03T08:39:41;11.43;;;5.38;;
27796;SDS011;15177;50.844;4.412;2023-04-03T08:42:16;7.57;;;4.55;;
27796;SDS011;15177;50.844;4.412;2023-04-03T08:47:43;7.13;;;4.22;;
27796;SDS011;15177;50.844;4.412;2023-04-03T08:50:25;9.27;;;4.90;;
27796;SDS011;15177;50.844;4.412;2023-04-03T08:53:01;9.82;;;4.90;;
27796;SDS011;15177;50.844;4.412;2023-04-03T08:55:37;9.93;;;4.38;;
27796;SDS011;15177;50.844;4.412;2023-04-03T08:58:16;7.80;;;4.68;;
27796;SDS011;15177;50.844;4.412;2023-04-03T09:03:18;7.63;;;3.90;;
27796;SDS011;15177;50.844;4.412;2023-04-03T09:13:54;6.65;;;3.33;;
27796;SDS011;15177;50.844;4.412;2023-04-03T09:16:54;6.20;;;3.40;;
27796;SDS011;15177;50.844;4.412;2023-04-03T09:24:45;7.38;;;3.55;;
27796;SDS011;15177;50.844;4.412;2023-04-03T09:27:14;8.38;;;3.90;;
27796;SDS011;15177;50.844;4.412;2023-04-03T09:29:40;7.75;;;3.08;;
27796;SDS011;15177;50.844;4.412;2023-04-03T09:35:03;9.70;;;3.13;;
27796;SDS011;15177;50.844;4.412;2023-04-03T09:37:44;21.55;;;3.58;;
27796;SDS011;15177;50.844;4.412;2023-04-03T09:43:18;8.55;;;2.97;;
27796;SDS011;15177;50.844;4.412;2023-04-03T09:45:45;5.97;;;2.85;;
27796;SDS011;15177;50.844;4.412;2023-04-03T09:55:53;4.00;;;1.98;;
27796;SDS011;15177;50.844;4.412;2023-04-03T09:58:33;6.30;;;2.85;;
27796;SDS011;15177;50.844;4.412;2023-04-03T10:01:04;7.00;;;2.78;;
27796;SDS011;15177;50.844;4.412;2023-04-03T10:06:21;8.98;;;2.70;;
27796;SDS011;15177;50.844;4.412;2023-04-03T10:09:03;3.72;;;2.20;;
27796;SDS011;15177;50.844;4.412;2023-04-03T10:11:31;7.97;;;2.60;;
27796;SDS011;15177;50.844;4.412;2023-04-03T10:13:58;9.23;;;2.53;;
27796;SDS011;15177;50.844;4.412;2023-04-03T10:16:27;5.32;;;2.30;;
27796;SDS011;15177;50.844;4.412;2023-04-03T10:19:13;6.43;;;2.50;;
27796;SDS011;15177;50.844;4.412;2023-04-03T10:22:02;13.77;;;2.30;;
27796;SDS011;15177;50.844;4.412;2023-04-03T10:27:11;3.72;;;2.00;;
27796;SDS011;15177;50.844;4.412;2023-04-03T10:29:47;7.45;;;1.90;;
27796;SDS011;15177;50.844;4.412;2023-04-03T10:32:45;5.65;;;2.00;;
27796;SDS011;15177;50.844;4.412;2023-04-03T10:35:25;8.32;;;2.72;;
27796;SDS011;15177;50.844;4.412;2023-04-03T10:46:28;4.88;;;2.00;;
27796;SDS011;15177;50.844;4.412;2023-04-03T10:51:35;6.55;;;2.15;;
27796;SDS011;15177;50.844;4.412;2023-04-03T10:56:54;6.82;;;2.03;;
27796;SDS011;15177;50.844;4.412;2023-04-03T10:59:36;3.42;;;1.88;;
27796;SDS011;15177;50.844;4.412;2023-04-03T11:02:25;7.03;;;1.95;;
27796;SDS011;15177;50.844;4.412;2023-04-03T11:04:54;6.07;;;2.10;;
27796;SDS011;15177;50.844;4.412;2023-04-03T11:07:32;4.97;;;2.03;;
27796;SDS011;15177;50.844;4.412;2023-04-03T11:10:14;3.28;;;1.60;;
27796;SDS011;15177;50.844;4.412;2023-04-03T11:12:51;3.38;;;1.77;;
27796;SDS011;15177;50.844;4.412;2023-04-03T11:15:23;4.13;;;1.80;;
27796;SDS011;15177;50.844;4.412;2023-04-03T11:17:54;4.90;;;1.55;;
27796;SDS011;15177;50.844;4.412;2023-04-03T11:20:34;3.53;;;1.60;;
27796;SDS011;15177;50.844;4.412;2023-04-03T11:25:50;6.20;;;2.10;;
27796;SDS011;15177;50.844;4.412;2023-04-03T11:28:18;4.07;;;2.07;;
27796;SDS011;15177;50.844;4.412;2023-04-03T11:36:22;3.77;;;1.67;;
27796;SDS011;15177;50.844;4.412;2023-04-03T11:38:55;3.47;;;1.87;;
27796;SDS011;15177;50.844;4.412;2023-04-03T11:41:30;6.47;;;2.60;;
27796;SDS011;15177;50.844;4.412;2023-04-03T12:13:36;3.80;;;1.83;;
27796;SDS011;15177;50.844;4.412;2023-04-03T12:35:08;6.07;;;1.90;;
27796;SDS011;15177;50.844;4.412;2023-04-03T12:46:15;4.77;;;1.80;;
27796;SDS011;15177;50.844;4.412;2023-04-03T12:51:09;11.33;;;1.80;;
27796;SDS011;15177;50.844;4.412;2023-04-03T12:53:40;3.53;;;1.73;;
27796;SDS011;15177;50.844;4.412;2023-04-03T12:58:49;2.00;;;1.33;;
27796;SDS011;15177;50.844;4.412;2023-04-03T13:01:16;5.23;;;1.27;;
27796;SDS011;15177;50.844;4.412;2023-04-03T13:03:49;4.03;;;1.60;;
27796;SDS011;15177;50.844;4.412;2023-04-03T13:06:24;7.67;;;2.13;;
27796;SDS011;15177;50.844;4.412;2023-04-03T13:08:57;1.77;;;1.27;;
27796;SDS011;15177;50.844;4.412;2023-04-03T13:11:35;2.47;;;1.40;;
27796;SDS011;15177;50.844;4.412;2023-04-03T13:14:04;4.07;;;1.67;;
27796;SDS011;15177;50.844;4.412;2023-04-03T13:16:39;5.43;;;1.70;;
27796;SDS011;15177;50.844;4.412;2023-04-03T13:19:06;2.33;;;1.30;;
27796;SDS011;15177;50.844;4.412;2023-04-03T13:21:41;6.70;;;1.60;;
27796;SDS011;15177;50.844;4.412;2023-04-03T13:24:09;4.90;;;1.47;;
27796;SDS011;15177;50.844;4.412;2023-04-03T13:26:35;5.30;;;1.43;;
27796;SDS011;15177;50.844;4.412;2023-04-03T13:29:02;4.77;;;1.57;;
27796;SDS011;15177;50.844;4.412;2023-04-03T13:31:35;7.87;;;2.07;;
27796;SDS011;15177;50.844;4.412;2023-04-03T13:34:06;5.63;;;1.60;;
27796;SDS011;15177;50.844;4.412;2023-04-03T13:36:36;4.53;;;1.60;;
27796;SDS011;15177;50.844;4.412;2023-04-03T13:41:36;3.97;;;1.53;;
27796;SDS011;15177;50.844;4.412;2023-04-03T13:46:46;4.57;;;1.53;;
27796;SDS011;15177;50.844;4.412;2023-04-03T13:49:38;2.97;;;1.40;;
27796;SDS011;15177;50.844;4.412;2023-04-03T13:55:02;4.00;;;1.77;;
27796;SDS011;15177;50.844;4.412;2023-04-03T14:00:31;5.70;;;1.90;;
27796;SDS011;15177;50.844;4.412;2023-04-03T14:03:03;5.23;;;2.07;;
27796;SDS011;15177;50.844;4.412;2023-04-03T14:05:37;6.63;;;1.90;;
27796;SDS011;15177;50.844;4.412;2023-04-03T14:08:03;9.67;;;1.83;;
27796;SDS011;15177;50.844;4.412;2023-04-03T14:10:29;5.13;;;1.97;;
27796;SDS011;15177;50.844;4.412;2023-04-03T14:12:55;7.23;;;2.20;;
27796;SDS011;15177;50.844;4.412;2023-04-03T14:15:26;4.03;;;1.73;;
27796;SDS011;15177;50.844;4.412;2023-04-03T14:17:53;5.03;;;1.77;;
27796;SDS011;15177;50.844;4.412;2023-04-03T14:20:23;2.90;;;1.70;;
27796;SDS011;15177;50.844;4.412;2023-04-03T14:22:52;6.37;;;2.77;;
27796;SDS011;15177;50.844;4.412;2023-04-03T14:25:19;4.47;;;1.53;;
27796;SDS011;15177;50.844;4.412;2023-04-03T14:27:47;3.30;;;1.90;;
27796;SDS011;15177;50.844;4.412;2023-04-03T14:30:23;3.10;;;1.70;;
27796;SDS011;15177;50.844;4.412;2023-04-03T14:32:51;6.87;;;1.60;;
27796;SDS011;15177;50.844;4.412;2023-04-03T14:35:17;8.87;;;1.77;;
27796;SDS011;15177;50.844;4.412;2023-04-03T14:37:46;4.07;;;1.67;;
27796;SDS011;15177;50.844;4.412;2023-04-03T14:40:18;5.67;;;1.90;;
27796;SDS011;15177;50.844;4.412;2023-04-03T14:42:47;4.37;;;1.60;;
27796;SDS011;15177;50.844;4.412;2023-04-03T14:45:14;3.97;;;1.73;;
27796;SDS011;15177;50.844;4.412;2023-04-03T14:48:02;6.10;;;1.77;;
27796;SDS011;15177;50.844;4.412;2023-04-03T14:50:27;6.70;;;2.10;;
27796;SDS011;15177;50.844;4.412;2023-04-03T14:52:54;4.50;;;1.80;;
27796;SDS011;15177;50.844;4.412;2023-04-03T14:55:22;3.77;;;1.90;;
27796;SDS011;15177;50.844;4.412;2023-04-03T14:57:49;3.57;;;1.57;;
27796;SDS011;15177;50.844;4.412;2023-04-03T15:00:17;3.53;;;1.77;;
27796;SDS011;15177;50.844;4.412;2023-04-03T15:02:46;4.60;;;1.70;;
27796;SDS011;15177;50.844;4.412;2023-04-03T15:05:12;5.77;;;1.80;;
27796;SDS011;15177;50.844;4.412;2023-04-03T15:10:14;2.57;;;1.40;;
27796;SDS011;15177;50.844;4.412;2023-04-03T15:12:43;5.90;;;1.33;;
27796;SDS011;15177;50.844;4.412;2023-04-03T15:15:10;3.70;;;1.70;;
27796;SDS011;15177;50.844;4.412;2023-04-03T15:17:36;4.97;;;1.57;;
27796;SDS011;15177;50.844;4.412;2023-04-03T15:20:02;2.73;;;1.33;;
27796;SDS011;15177;50.844;4.412;2023-04-03T15:22:35;4.57;;;1.73;;
27796;SDS011;15177;50.844;4.412;2023-04-03T15:25:01;5.27;;;1.93;;
27796;SDS011;15177;50.844;4.412;2023-04-03T15:27:28;3.03;;;1.43;;
27796;SDS011;15177;50.844;4.412;2023-04-03T15:29:53;3.77;;;1.80;;
27796;SDS011;15177;50.844;4.412;2023-04-03T15:32:19;8.30;;;1.57;;
27796;SDS011;15177;50.844;4.412;2023-04-03T15:34:45;2.70;;;1.60;;
27796;SDS011;15177;50.844;4.412;2023-04-03T15:37:10;7.80;;;1.80;;
27796;SDS011;15177;50.844;4.412;2023-04-03T15:39:36;5.03;;;2.27;;
27796;SDS011;15177;50.844;4.412;2023-04-03T15:42:02;3.20;;;1.43;;
27796;SDS011;15177;50.844;4.412;2023-04-03T15:44:31;2.37;;;1.40;;
27796;SDS011;15177;50.844;4.412;2023-04-03T15:46:59;3.33;;;1.60;;
27796;SDS011;15177;50.844;4.412;2023-04-03T15:49:26;4.13;;;1.80;;
27796;SDS011;15177;50.844;4.412;2023-04-03T15:51:52;3.60;;;2.17;;
27796;SDS011;15177;50.844;4.412;2023-04-03T15:54:18;6.90;;;1.97;;
27796;SDS011;15177;50.844;4.412;2023-04-03T15:56:44;6.30;;;2.20;;
27796;SDS011;15177;50.844;4.412;2023-04-03T15:59:11;4.50;;;1.77;;
27796;SDS011;15177;50.844;4.412;2023-04-03T16:01:38;3.70;;;2.20;;
27796;SDS011;15177;50.844;4.412;2023-04-03T16:04:06;5.07;;;1.93;;
27796;SDS011;15177;50.844;4.412;2023-04-03T16:06:35;4.37;;;2.37;;
27796;SDS011;15177;50.844;4.412;2023-04-03T16:09:02;3.97;;;1.90;;
27796;SDS011;15177;50.844;4.412;2023-04-03T16:11:28;4.23;;;1.80;;
27796;SDS011;15177;50.844;4.412;2023-04-03T16:13:54;6.03;;;1.97;;
27796;SDS011;15177;50.844;4.412;2023-04-03T16:16:21;3.50;;;2.03;;
27796;SDS011;15177;50.844;4.412;2023-04-03T16:18:48;4.23;;;1.97;;
27796;SDS011;15177;50.844;4.412;2023-04-03T16:21:15;5.63;;;1.97;;
27796;SDS011;15177;50.844;4.412;2023-04-03T16:23:41;4.83;;;2.10;;
27796;SDS011;15177;50.844;4.412;2023-04-03T16:26:07;3.93;;;1.97;;
27796;SDS011;15177;50.844;4.412;2023-04-03T16:28:32;3.80;;;1.93;;
27796;SDS011;15177;50.844;4.412;2023-04-03T16:30:59;5.00;;;2.40;;
27796;SDS011;15177;50.844;4.412;2023-04-03T16:33:26;5.17;;;2.10;;
27796;SDS011;15177;50.844;4.412;2023-04-03T16:35:52;8.37;;;2.93;;
27796;SDS011;15177;50.844;4.412;2023-04-03T16:38:18;3.27;;;2.00;;
27796;SDS011;15177;50.844;4.412;2023-04-03T16:40:44;5.30;;;2.33;;
27796;SDS011;15177;50.844;4.412;2023-04-03T16:43:10;6.97;;;2.63;;
27796;SDS011;15177;50.844;4.412;2023-04-03T16:45:36;6.30;;;2.37;;
27796;SDS011;15177;50.844;4.412;2023-04-03T16:48:03;6.53;;;2.60;;
27796;SDS011;15177;50.844;4.412;2023-04-03T16:50:29;4.10;;;2.00;;
27796;SDS011;15177;50.844;4.412;2023-04-03T16:52:55;3.10;;;2.00;;
27796;SDS011;15177;50.844;4.412;2023-04-03T16:55:21;5.37;;;2.50;;
27796;SDS011;15177;50.844;4.412;2023-04-03T16:57:47;6.10;;;2.30;;
27796;SDS011;15177;50.844;4.412;2023-04-03T17:00:13;10.37;;;2.53;;
27796;SDS011;15177;50.844;4.412;2023-04-03T17:02:40;8.50;;;2.23;;
27796;SDS011;15177;50.844;4.412;2023-04-03T17:05:06;9.00;;;2.33;;